Date,TemperatureHighF,TemperatureAvgF,TemperatureLowF,DewpointHighF,DewpointAvgF,DewpointLowF,HumidityHigh,HumidityAvg,HumidityLow,PressureMaxIn,PressureMinIn,WindSpeedMaxMPH,WindSpeedAvgMPH,GustSpeedMaxMPH,PrecipitationSumIn
2013-2-1,22,14,7,15,8,1,85,78,70,30.20,29.84,15,6,15,0.00
2013-2-2,26,16,6,21,12,0,85,81,78,30.15,29.89,11,4,11,0.00
2013-2-3,25,13,-2,19,7,-6,88,79,71,29.96,29.79,16,3,16,0.00
2013-2-4,29,21,16,23,16,10,84,81,75,29.97,29.82,6,1,6,0.00
2013-2-5,28,20,1,25,15,-3,89,81,70,29.91,29.76,12,3,12,0.00
2013-2-6,42,25,6,31,18,2,92,74,53,30.24,29.91,13,2,13,0.05
2013-2-7,40,31,24,30,24,16,85,74,67,30.22,29.81,9,3,9,0.00
2013-2-8,30,26,11,27,20,5,90,80,63,30.29,29.75,22,5,22,0.00
2013-2-9,41,19,-1,30,11,-5,90,73,55,30.38,30.22,9,1,9,0.10
2013-2-10,40,30,19,36,25,14,89,80,65,30.22,29.65,11,3,11,0.03
2013-2-11,44,37,31,42,31,25,93,81,73,29.83,29.52,25,9,25,0.20
2013-2-12,34,30,27,26,24,21,81,77,72,30.00,29.83,18,5,18,0.00
2013-2-13,48,33,26,34,24,20,81,72,53,29.89,29.69,9,2,9,0.00
2013-2-14,39,33,26,35,29,22,88,83,77,29.81,29.63,22,4,22,0.01
2013-2-15,34,28,21,28,18,11,80,68,54,30.07,29.81,17,5,17,0.00
2013-2-16,29,20,14,22,13,7,80,73,60,30.05,29.93,14,2,14,0.00
2013-2-17,30,17,4,14,7,-1,83,68,46,30.14,30.00,15,3,15,0.00
2013-2-18,45,32,12,37,22,4,74,66,52,30.14,29.56,14,3,14,0.00
2013-2-19,44,29,18,40,23,11,90,80,72,29.88,29.38,23,9,23,0.06
2013-2-20,23,20,16,16,12,8,77,72,65,30.18,29.88,18,7,18,0.00
2013-2-21,29,23,20,20,16,13,81,74,65,30.32,30.17,13,3,13,0.00
2013-2-22,33,27,22,30,24,16,91,85,77,30.20,29.84,12,4,12,0.00
2013-2-23,37,30,23,29,23,17,88,75,64,29.88,29.82,13,4,13,0.05
2013-2-24,38,28,22,28,22,16,85,76,62,30.10,29.85,14,3,14,0.06
2013-2-25,49,31,13,37,22,8,91,70,50,30.18,30.04,6,1,6,0.02
2013-2-26,36,31,24,31,26,18,92,81,68,30.07,29.46,15,4,15,0.21
2013-2-27,37,34,33,34,31,30,92,90,87,29.54,29.41,7,2,7,0.36
2013-2-28,37,33,29,33,30,25,93,88,81,29.92,29.51,19,4,19,0.07